sensor_id;sensor_type;location;lat;lon;timestamp;temperature;humidity
21115;DHT22;10715;48.546;9.896;2023-11-18T00:01:55;3.60;99.90
21115;DHT22;10715;48.546;9.896;2023-11-18T00:04:22;3.60;99.90
21115;DHT22;10715;48.546;9.896;2023-11-18T00:06:47;3.60;99.90
21115;DHT22;10715;48.546;9.896;2023-11-18T00:09:13;3.60;99.90
21115;DHT22;10715;48.546;9.896;2023-11-18T00:11:40;3.60;99.90
21115;DHT22;10715;48.546;9.896;2023-11-18T00:14:06;3.60;99.90
21115;DHT22;10715;48.546;9.896;2023-11-18T00:16:32;3.60;99.90
21115;DHT22;10715;48.546;9.896;2023-11-18T00:19:00;3.60;99.90
21115;DHT22;10715;48.546;9.896;2023-11-18T00:21:27;3.60;99.90
21115;DHT22;10715;48.546;9.896;2023-11-18T00:23:53;3.60;99.90
21115;DHT22;10715;48.546;9.896;2023-11-18T00:26:21;3.60;99.90
21115;DHT22;10715;48.546;9.896;2023-11-18T00:28:47;3.60;99.90
21115;DHT22;10715;48.546;9.896;2023-11-18T00:31:14;3.60;99.90
21115;DHT22;10715;48.546;9.896;2023-11-18T00:33:40;3.60;99.90
21115;DHT22;10715;48.546;9.896;2023-11-18T00:36:06;3.60;99.90
21115;DHT22;10715;48.546;9.896;2023-11-18T00:38:32;3.60;99.90
21115;DHT22;10715;48.546;9.896;2023-11-18T00:40:58;3.60;99.90
21115;DHT22;10715;48.546;9.896;2023-11-18T00:43:23;3.60;99.90
21115;DHT22;10715;48.546;9.896;2023-11-18T00:45:49;3.60;99.90
21115;DHT22;10715;48.546;9.896;2023-11-18T00:48:17;3.60;99.90
21115;DHT22;10715;48.546;9.896;2023-11-18T00:50:42;3.60;99.90
21115;DHT22;10715;48.546;9.896;2023-11-18T00:53:08;3.60;99.90
21115;DHT22;10715;48.546;9.896;2023-11-18T00:55:35;3.60;99.90
21115;DHT22;10715;48.546;9.896;2023-11-18T00:58:01;3.60;99.90
21115;DHT22;10715;48.546;9.896;2023-11-18T01:00:27;3.60;99.90
21115;DHT22;10715;48.546;9.896;2023-11-18T01:02:53;3.50;99.90
21115;DHT22;10715;48.546;9.896;2023-11-18T01:05:20;3.50;99.90
21115;DHT22;10715;48.546;9.896;2023-11-18T01:07:46;3.50;99.90
21115;DHT22;10715;48.546;9.896;2023-11-18T01:10:12;3.50;99.90
21115;DHT22;10715;48.546;9.896;2023-11-18T01:12:39;3.50;99.90
21115;DHT22;10715;48.546;9.896;2023-11-18T01:15:06;3.50;99.90
21115;DHT22;10715;48.546;9.896;2023-11-18T01:17:33;3.50;99.90
21115;DHT22;10715;48.546;9.896;2023-11-18T01:19:59;3.50;99.90
21115;DHT22;10715;48.546;9.896;2023-11-18T01:22:26;3.50;99.90
21115;DHT22;10715;48.546;9.896;2023-11-18T01:24:52;3.50;99.90
21115;DHT22;10715;48.546;9.896;2023-11-18T01:27:18;3.50;99.90
21115;DHT22;10715;48.546;9.896;2023-11-18T01:29:45;3.50;99.90
21115;DHT22;10715;48.546;9.896;2023-11-18T01:32:12;3.50;99.90
21115;DHT22;10715;48.546;9.896;2023-11-18T01:34:39;3.40;99.90
21115;DHT22;10715;48.546;9.896;2023-11-18T01:37:06;3.40;99.90
21115;DHT22;10715;48.546;9.896;2023-11-18T01:39:36;3.40;99.90
21115;DHT22;10715;48.546;9.896;2023-11-18T01:42:02;3.40;99.90
21115;DHT22;10715;48.546;9.896;2023-11-18T01:44:29;3.40;99.90
21115;DHT22;10715;48.546;9.896;2023-11-18T01:46:56;3.40;99.90
21115;DHT22;10715;48.546;9.896;2023-11-18T01:49:23;3.40;99.90
21115;DHT22;10715;48.546;9.896;2023-11-18T01:51:50;3.40;99.90
21115;DHT22;10715;48.546;9.896;2023-11-18T01:54:19;3.40;99.90
21115;DHT22;10715;48.546;9.896;2023-11-18T01:56:49;3.40;99.90
21115;DHT22;10715;48.546;9.896;2023-11-18T01:59:15;3.40;99.90
21115;DHT22;10715;48.546;9.896;2023-11-18T02:01:50;3.40;99.90
21115;DHT22;10715;48.546;9.896;2023-11-18T02:04:18;3.40;99.90
21115;DHT22;10715;48.546;9.896;2023-11-18T02:06:46;3.40;99.90
21115;DHT22;10715;48.546;9.896;2023-11-18T02:09:17;3.40;99.90
21115;DHT22;10715;48.546;9.896;2023-11-18T02:14:26;3.40;99.90
21115;DHT22;10715;48.546;9.896;2023-11-18T02:16:53;3.40;99.90
21115;DHT22;10715;48.546;9.896;2023-11-18T02:19:24;3.40;99.90
21115;DHT22;10715;48.546;9.896;2023-11-18T02:21:53;3.40;99.90
21115;DHT22;10715;48.546;9.896;2023-11-18T02:27:00;3.40;99.90
21115;DHT22;10715;48.546;9.896;2023-11-18T02:29:28;3.40;99.90
21115;DHT22;10715;48.546;9.896;2023-11-18T02:32:00;3.40;99.90
21115;DHT22;10715;48.546;9.896;2023-11-18T02:34:30;3.40;99.90
21115;DHT22;10715;48.546;9.896;2023-11-18T02:36:58;3.40;99.90
21115;DHT22;10715;48.546;9.896;2023-11-18T02:39:38;3.40;99.90
21115;DHT22;10715;48.546;9.896;2023-11-18T02:42:07;3.40;99.90
21115;DHT22;10715;48.546;9.896;2023-11-18T02:44:37;3.40;99.90
21115;DHT22;10715;48.546;9.896;2023-11-18T02:47:03;3.40;99.90
21115;DHT22;10715;48.546;9.896;2023-11-18T02:49:31;3.40;99.90
21115;DHT22;10715;48.546;9.896;2023-11-18T02:51:57;3.40;99.90
21115;DHT22;10715;48.546;9.896;2023-11-18T02:54:23;3.40;99.90
21115;DHT22;10715;48.546;9.896;2023-11-18T02:56:49;3.40;99.90
21115;DHT22;10715;48.546;9.896;2023-11-18T02:59:16;3.40;99.90
21115;DHT22;10715;48.546;9.896;2023-11-18T03:01:42;3.40;99.90
21115;DHT22;10715;48.546;9.896;2023-11-18T03:04:08;3.40;99.90
21115;DHT22;10715;48.546;9.896;2023-11-18T03:06:34;3.40;99.90
21115;DHT22;10715;48.546;9.896;2023-11-18T03:09:01;3.40;99.90
21115;DHT22;10715;48.546;9.896;2023-11-18T03:11:27;3.30;99.90
21115;DHT22;10715;48.546;9.896;2023-11-18T03:13:56;3.40;99.90
21115;DHT22;10715;48.546;9.896;2023-11-18T03:16:22;3.30;99.90
21115;DHT22;10715;48.546;9.896;2023-11-18T03:18:50;3.30;99.90
21115;DHT22;10715;48.546;9.896;2023-11-18T03:21:16;3.30;99.90
21115;DHT22;10715;48.546;9.896;2023-11-18T03:23:42;3.40;99.90
21115;DHT22;10715;48.546;9.896;2023-11-18T03:26:09;3.30;99.90
21115;DHT22;10715;48.546;9.896;2023-11-18T03:28:36;3.30;99.90
21115;DHT22;10715;48.546;9.896;2023-11-18T03:31:03;3.30;99.90
21115;DHT22;10715;48.546;9.896;2023-11-18T03:33:30;3.30;99.90
21115;DHT22;10715;48.546;9.896;2023-11-18T03:35:55;3.30;99.90
21115;DHT22;10715;48.546;9.896;2023-11-18T03:38:22;3.30;99.90
21115;DHT22;10715;48.546;9.896;2023-11-18T03:40:47;3.30;99.90
21115;DHT22;10715;48.546;9.896;2023-11-18T03:43:13;3.30;99.90
21115;DHT22;10715;48.546;9.896;2023-11-18T03:45:40;3.30;99.90
21115;DHT22;10715;48.546;9.896;2023-11-18T03:48:06;3.30;99.90
21115;DHT22;10715;48.546;9.896;2023-11-18T03:50:35;3.30;99.90
21115;DHT22;10715;48.546;9.896;2023-11-18T03:53:01;3.30;99.90
21115;DHT22;10715;48.546;9.896;2023-11-18T03:55:29;3.30;99.90
21115;DHT22;10715;48.546;9.896;2023-11-18T03:57:55;3.30;99.90
21115;DHT22;10715;48.546;9.896;2023-11-18T04:00:22;3.30;99.90
21115;DHT22;10715;48.546;9.896;2023-11-18T04:02:55;3.30;99.90
21115;DHT22;10715;48.546;9.896;2023-11-18T04:05:21;3.30;99.90
21115;DHT22;10715;48.546;9.896;2023-11-18T04:07:46;3.30;99.90
21115;DHT22;10715;48.546;9.896;2023-11-18T04:10:12;3.30;99.90
21115;DHT22;10715;48.546;9.896;2023-11-18T04:12:38;3.30;99.90
21115;DHT22;10715;48.546;9.896;2023-11-18T04:15:04;3.30;99.90
21115;DHT22;10715;48.546;9.896;2023-11-18T04:17:33;3.30;99.90
21115;DHT22;10715;48.546;9.896;2023-11-18T04:19:59;3.30;99.90
21115;DHT22;10715;48.546;9.896;2023-11-18T04:22:25;3.30;99.90
21115;DHT22;10715;48.546;9.896;2023-11-18T04:24:50;3.30;99.90
21115;DHT22;10715;48.546;9.896;2023-11-18T04:27:16;3.30;99.90
21115;DHT22;10715;48.546;9.896;2023-11-18T04:29:42;3.30;99.90
21115;DHT22;10715;48.546;9.896;2023-11-18T04:32:08;3.30;99.90
21115;DHT22;10715;48.546;9.896;2023-11-18T04:34:37;3.30;99.90
21115;DHT22;10715;48.546;9.896;2023-11-18T04:37:04;3.30;99.90
21115;DHT22;10715;48.546;9.896;2023-11-18T04:39:32;3.30;99.90
21115;DHT22;10715;48.546;9.896;2023-11-18T04:41:58;3.30;99.90
21115;DHT22;10715;48.546;9.896;2023-11-18T04:44:24;3.30;99.90
21115;DHT22;10715;48.546;9.896;2023-11-18T04:46:49;3.30;99.90
21115;DHT22;10715;48.546;9.896;2023-11-18T04:49:15;3.30;99.90
21115;DHT22;10715;48.546;9.896;2023-11-18T04:51:41;3.30;99.90
21115;DHT22;10715;48.546;9.896;2023-11-18T04:54:07;3.20;99.90
21115;DHT22;10715;48.546;9.896;2023-11-18T04:56:36;3.20;99.90
21115;DHT22;10715;48.546;9.896;2023-11-18T04:59:05;3.20;99.90
21115;DHT22;10715;48.546;9.896;2023-11-18T05:01:31;3.20;99.90
21115;DHT22;10715;48.546;9.896;2023-11-18T05:03:57;3.10;99.90
21115;DHT22;10715;48.546;9.896;2023-11-18T05:06:23;3.10;99.90
21115;DHT22;10715;48.546;9.896;2023-11-18T05:08:49;3.10;99.90
21115;DHT22;10715;48.546;9.896;2023-11-18T05:11:15;3.10;99.90
21115;DHT22;10715;48.546;9.896;2023-11-18T05:13:41;3.10;99.90
21115;DHT22;10715;48.546;9.896;2023-11-18T05:16:07;3.10;99.90
21115;DHT22;10715;48.546;9.896;2023-11-18T05:18:33;3.10;99.90
21115;DHT22;10715;48.546;9.896;2023-11-18T05:21:02;3.10;99.90
21115;DHT22;10715;48.546;9.896;2023-11-18T05:23:30;3.10;99.90
21115;DHT22;10715;48.546;9.896;2023-11-18T05:25:57;3.10;99.90
21115;DHT22;10715;48.546;9.896;2023-11-18T05:28:24;3.10;99.90
21115;DHT22;10715;48.546;9.896;2023-11-18T05:30:50;3.00;99.90
21115;DHT22;10715;48.546;9.896;2023-11-18T05:33:17;3.00;99.90
21115;DHT22;10715;48.546;9.896;2023-11-18T05:35:44;3.00;99.90
21115;DHT22;10715;48.546;9.896;2023-11-18T05:38:20;3.00;99.90
21115;DHT22;10715;48.546;9.896;2023-11-18T05:40:47;3.00;99.90
21115;DHT22;10715;48.546;9.896;2023-11-18T05:43:30;3.00;99.90
21115;DHT22;10715;48.546;9.896;2023-11-18T05:45:57;3.00;99.90
21115;DHT22;10715;48.546;9.896;2023-11-18T05:48:46;3.00;99.90
21115;DHT22;10715;48.546;9.896;2023-11-18T05:51:12;3.00;99.90
21115;DHT22;10715;48.546;9.896;2023-11-18T05:53:42;2.90;99.90
21115;DHT22;10715;48.546;9.896;2023-11-18T05:56:11;2.90;99.90
21115;DHT22;10715;48.546;9.896;2023-11-18T05:58:36;2.90;99.90
21115;DHT22;10715;48.546;9.896;2023-11-18T06:01:04;2.90;99.90
21115;DHT22;10715;48.546;9.896;2023-11-18T06:03:30;2.90;99.90
21115;DHT22;10715;48.546;9.896;2023-11-18T06:05:56;2.90;99.90
21115;DHT22;10715;48.546;9.896;2023-11-18T06:08:22;2.90;99.90
21115;DHT22;10715;48.546;9.896;2023-11-18T06:10:48;2.90;99.90
21115;DHT22;10715;48.546;9.896;2023-11-18T06:13:14;2.90;99.90
21115;DHT22;10715;48.546;9.896;2023-11-18T06:15:42;2.90;99.90
21115;DHT22;10715;48.546;9.896;2023-11-18T06:18:09;2.90;99.90
21115;DHT22;10715;48.546;9.896;2023-11-18T06:20:35;2.90;99.90
21115;DHT22;10715;48.546;9.896;2023-11-18T06:23:01;2.90;99.90
21115;DHT22;10715;48.546;9.896;2023-11-18T06:25:27;2.80;99.90
21115;DHT22;10715;48.546;9.896;2023-11-18T06:27:53;2.80;99.90
21115;DHT22;10715;48.546;9.896;2023-11-18T06:30:18;2.80;99.90
21115;DHT22;10715;48.546;9.896;2023-11-18T06:32:45;2.80;99.90
21115;DHT22;10715;48.546;9.896;2023-11-18T06:35:12;2.80;99.90
21115;DHT22;10715;48.546;9.896;2023-11-18T06:37:41;2.80;99.90
21115;DHT22;10715;48.546;9.896;2023-11-18T06:40:08;2.70;99.90
21115;DHT22;10715;48.546;9.896;2023-11-18T06:42:45;2.70;99.90
21115;DHT22;10715;48.546;9.896;2023-11-18T06:45:13;2.60;99.90
21115;DHT22;10715;48.546;9.896;2023-11-18T06:47:39;2.60;99.90
21115;DHT22;10715;48.546;9.896;2023-11-18T06:50:09;2.50;99.90
21115;DHT22;10715;48.546;9.896;2023-11-18T06:52:38;2.50;99.90
21115;DHT22;10715;48.546;9.896;2023-11-18T06:55:04;2.50;99.90
21115;DHT22;10715;48.546;9.896;2023-11-18T06:57:30;2.40;99.90
21115;DHT22;10715;48.546;9.896;2023-11-18T06:59:57;2.30;99.90
21115;DHT22;10715;48.546;9.896;2023-11-18T07:02:23;2.30;99.90
21115;DHT22;10715;48.546;9.896;2023-11-18T07:04:49;2.30;99.90
21115;DHT22;10715;48.546;9.896;2023-11-18T07:07:15;2.20;99.90
21115;DHT22;10715;48.546;9.896;2023-11-18T07:09:42;2.20;99.90
21115;DHT22;10715;48.546;9.896;2023-11-18T07:12:10;2.20;99.90
21115;DHT22;10715;48.546;9.896;2023-11-18T07:14:35;2.20;99.90
21115;DHT22;10715;48.546;9.896;2023-11-18T07:17:01;2.10;99.90
21115;DHT22;10715;48.546;9.896;2023-11-18T07:19:27;2.20;99.90
21115;DHT22;10715;48.546;9.896;2023-11-18T07:21:54;2.10;99.90
21115;DHT22;10715;48.546;9.896;2023-11-18T07:24:20;2.10;99.90
21115;DHT22;10715;48.546;9.896;2023-11-18T07:26:45;2.10;99.90
21115;DHT22;10715;48.546;9.896;2023-11-18T07:29:11;2.10;99.90
21115;DHT22;10715;48.546;9.896;2023-11-18T07:31:37;2.10;99.90
21115;DHT22;10715;48.546;9.896;2023-11-18T07:34:06;2.10;99.90
21115;DHT22;10715;48.546;9.896;2023-11-18T07:36:32;2.10;99.90
21115;DHT22;10715;48.546;9.896;2023-11-18T07:38:58;2.10;99.90
21115;DHT22;10715;48.546;9.896;2023-11-18T07:41:27;2.10;99.90
21115;DHT22;10715;48.546;9.896;2023-11-18T07:43:53;2.10;99.90
21115;DHT22;10715;48.546;9.896;2023-11-18T07:46:24;2.10;99.90
21115;DHT22;10715;48.546;9.896;2023-11-18T07:48:51;2.10;99.90
21115;DHT22;10715;48.546;9.896;2023-11-18T07:51:18;2.10;99.90
21115;DHT22;10715;48.546;9.896;2023-11-18T07:53:50;2.10;99.90
21115;DHT22;10715;48.546;9.896;2023-11-18T07:56:16;2.10;99.90
21115;DHT22;10715;48.546;9.896;2023-11-18T07:58:43;2.20;99.90
21115;DHT22;10715;48.546;9.896;2023-11-18T08:01:12;2.20;99.90
21115;DHT22;10715;48.546;9.896;2023-11-18T08:03:38;2.20;99.90
21115;DHT22;10715;48.546;9.896;2023-11-18T08:06:07;2.20;99.90
21115;DHT22;10715;48.546;9.896;2023-11-18T08:08:33;2.20;99.90
21115;DHT22;10715;48.546;9.896;2023-11-18T08:10:59;2.20;99.90
21115;DHT22;10715;48.546;9.896;2023-11-18T08:13:25;2.30;99.90
21115;DHT22;10715;48.546;9.896;2023-11-18T08:15:54;2.30;99.90
21115;DHT22;10715;48.546;9.896;2023-11-18T08:18:20;2.30;99.90
21115;DHT22;10715;48.546;9.896;2023-11-18T08:20:47;2.40;99.90
21115;DHT22;10715;48.546;9.896;2023-11-18T08:23:13;2.50;99.90
21115;DHT22;10715;48.546;9.896;2023-11-18T08:25:39;2.50;99.90
21115;DHT22;10715;48.546;9.896;2023-11-18T08:28:06;2.60;99.90
21115;DHT22;10715;48.546;9.896;2023-11-18T08:30:33;2.70;99.90
21115;DHT22;10715;48.546;9.896;2023-11-18T08:32:59;2.70;99.90
21115;DHT22;10715;48.546;9.896;2023-11-18T08:35:25;2.80;99.90
21115;DHT22;10715;48.546;9.896;2023-11-18T08:37:51;2.80;99.90
21115;DHT22;10715;48.546;9.896;2023-11-18T08:40:18;2.90;99.90
21115;DHT22;10715;48.546;9.896;2023-11-18T08:42:51;3.00;99.90
21115;DHT22;10715;48.546;9.896;2023-11-18T08:45:18;3.00;99.90
21115;DHT22;10715;48.546;9.896;2023-11-18T08:47:48;3.00;99.90
21115;DHT22;10715;48.546;9.896;2023-11-18T08:50:17;3.10;99.90
21115;DHT22;10715;48.546;9.896;2023-11-18T08:52:46;3.10;99.90
21115;DHT22;10715;48.546;9.896;2023-11-18T08:55:19;3.10;99.90
21115;DHT22;10715;48.546;9.896;2023-11-18T08:57:51;3.20;99.90
21115;DHT22;10715;48.546;9.896;2023-11-18T09:00:30;3.30;99.90
21115;DHT22;10715;48.546;9.896;2023-11-18T09:03:16;3.30;99.90
21115;DHT22;10715;48.546;9.896;2023-11-18T09:05:49;3.40;99.90
21115;DHT22;10715;48.546;9.896;2023-11-18T09:08:29;3.40;99.90
21115;DHT22;10715;48.546;9.896;2023-11-18T09:10:58;3.50;99.90
21115;DHT22;10715;48.546;9.896;2023-11-18T09:13:26;3.50;99.90
21115;DHT22;10715;48.546;9.896;2023-11-18T09:15:59;3.60;99.90
21115;DHT22;10715;48.546;9.896;2023-11-18T09:18:31;3.60;99.90
21115;DHT22;10715;48.546;9.896;2023-11-18T09:20:59;3.60;99.90
21115;DHT22;10715;48.546;9.896;2023-11-18T09:23:27;3.60;99.90
21115;DHT22;10715;48.546;9.896;2023-11-18T09:25:53;3.70;99.90
21115;DHT22;10715;48.546;9.896;2023-11-18T09:28:20;3.70;99.90
21115;DHT22;10715;48.546;9.896;2023-11-18T09:30:46;3.80;99.90
21115;DHT22;10715;48.546;9.896;2023-11-18T09:33:21;3.80;99.90
21115;DHT22;10715;48.546;9.896;2023-11-18T09:36:07;3.90;99.90
21115;DHT22;10715;48.546;9.896;2023-11-18T09:38:37;3.90;99.90
21115;DHT22;10715;48.546;9.896;2023-11-18T09:41:05;3.90;99.90
21115;DHT22;10715;48.546;9.896;2023-11-18T09:43:40;4.00;99.90
21115;DHT22;10715;48.546;9.896;2023-11-18T09:46:25;4.00;99.90
21115;DHT22;10715;48.546;9.896;2023-11-18T09:49:06;4.00;99.90
21115;DHT22;10715;48.546;9.896;2023-11-18T09:51:42;4.10;99.90
21115;DHT22;10715;48.546;9.896;2023-11-18T10:02:14;4.20;99.90
21115;DHT22;10715;48.546;9.896;2023-11-18T10:04:40;4.20;99.90
21115;DHT22;10715;48.546;9.896;2023-11-18T10:07:07;4.20;99.90
21115;DHT22;10715;48.546;9.896;2023-11-18T10:09:35;4.30;99.90
21115;DHT22;10715;48.546;9.896;2023-11-18T10:12:07;4.30;99.90
21115;DHT22;10715;48.546;9.896;2023-11-18T10:14:36;4.40;99.90
21115;DHT22;10715;48.546;9.896;2023-11-18T10:17:07;4.40;99.90
21115;DHT22;10715;48.546;9.896;2023-11-18T10:22:28;4.40;99.90
21115;DHT22;10715;48.546;9.896;2023-11-18T10:24:55;4.50;99.90
21115;DHT22;10715;48.546;9.896;2023-11-18T10:27:23;4.50;99.90
21115;DHT22;10715;48.546;9.896;2023-11-18T10:30:02;4.50;99.90
21115;DHT22;10715;48.546;9.896;2023-11-18T10:32:28;4.50;99.90
21115;DHT22;10715;48.546;9.896;2023-11-18T10:34:58;4.50;99.90
21115;DHT22;10715;48.546;9.896;2023-11-18T10:37:27;4.50;99.90
21115;DHT22;10715;48.546;9.896;2023-11-18T10:39:56;4.60;99.90
21115;DHT22;10715;48.546;9.896;2023-11-18T10:42:31;4.60;99.90
21115;DHT22;10715;48.546;9.896;2023-11-18T10:44:59;4.60;99.90
21115;DHT22;10715;48.546;9.896;2023-11-18T10:47:27;4.60;99.90
21115;DHT22;10715;48.546;9.896;2023-11-18T10:49:55;4.70;99.90
21115;DHT22;10715;48.546;9.896;2023-11-18T10:52:27;4.70;99.90
21115;DHT22;10715;48.546;9.896;2023-11-18T10:54:56;4.70;99.90
21115;DHT22;10715;48.546;9.896;2023-11-18T10:57:22;4.70;99.90
21115;DHT22;10715;48.546;9.896;2023-11-18T11:00:03;4.70;99.90
21115;DHT22;10715;48.546;9.896;2023-11-18T11:02:41;4.70;99.90
21115;DHT22;10715;48.546;9.896;2023-11-18T11:05:11;4.70;99.90
21115;DHT22;10715;48.546;9.896;2023-11-18T11:07:45;4.70;99.90
21115;DHT22;10715;48.546;9.896;2023-11-18T11:10:11;4.70;99.90
21115;DHT22;10715;48.546;9.896;2023-11-18T11:12:54;4.60;99.90
21115;DHT22;10715;48.546;9.896;2023-11-18T11:15:31;4.60;99.90
21115;DHT22;10715;48.546;9.896;2023-11-18T11:18:04;4.60;99.90
21115;DHT22;10715;48.546;9.896;2023-11-18T11:20:39;4.50;99.90
21115;DHT22;10715;48.546;9.896;2023-11-18T11:25:43;4.50;99.90
21115;DHT22;10715;48.546;9.896;2023-11-18T11:28:20;4.50;99.90
21115;DHT22;10715;48.546;9.896;2023-11-18T11:30:57;4.50;99.90
21115;DHT22;10715;48.546;9.896;2023-11-18T11:33:43;4.50;99.90
21115;DHT22;10715;48.546;9.896;2023-11-18T11:36:12;4.50;99.90
21115;DHT22;10715;48.546;9.896;2023-11-18T11:38:43;4.50;99.90
21115;DHT22;10715;48.546;9.896;2023-11-18T11:41:13;4.50;99.90
21115;DHT22;10715;48.546;9.896;2023-11-18T11:43:46;4.40;99.90
21115;DHT22;10715;48.546;9.896;2023-11-18T11:46:14;4.40;99.90
21115;DHT22;10715;48.546;9.896;2023-11-18T11:48:43;4.40;99.90
21115;DHT22;10715;48.546;9.896;2023-11-18T11:51:24;4.40;99.90
21115;DHT22;10715;48.546;9.896;2023-11-18T11:53:58;4.40;99.90
21115;DHT22;10715;48.546;9.896;2023-11-18T11:56:46;4.40;99.90
21115;DHT22;10715;48.546;9.896;2023-11-18T11:59:16;4.40;99.90
21115;DHT22;10715;48.546;9.896;2023-11-18T12:01:41;4.40;99.90
21115;DHT22;10715;48.546;9.896;2023-11-18T12:04:15;4.40;99.90
21115;DHT22;10715;48.546;9.896;2023-11-18T12:06:48;4.40;99.90
21115;DHT22;10715;48.546;9.896;2023-11-18T12:09:14;4.40;99.90
21115;DHT22;10715;48.546;9.896;2023-11-18T12:11:48;4.40;99.90
21115;DHT22;10715;48.546;9.896;2023-11-18T12:14:16;4.50;99.90
21115;DHT22;10715;48.546;9.896;2023-11-18T12:17:03;4.50;99.90
21115;DHT22;10715;48.546;9.896;2023-11-18T12:19:50;4.50;99.90
21115;DHT22;10715;48.546;9.896;2023-11-18T12:22:20;4.50;99.90
21115;DHT22;10715;48.546;9.896;2023-11-18T12:35:25;4.60;99.90
21115;DHT22;10715;48.546;9.896;2023-11-18T12:49:14;4.60;99.90
21115;DHT22;10715;48.546;9.896;2023-11-18T12:51:45;4.60;99.90
21115;DHT22;10715;48.546;9.896;2023-11-18T12:54:14;4.60;99.90
21115;DHT22;10715;48.546;9.896;2023-11-18T12:56:41;4.60;99.90
21115;DHT22;10715;48.546;9.896;2023-11-18T12:59:15;4.60;99.90
21115;DHT22;10715;48.546;9.896;2023-11-18T13:01:53;4.70;99.90
21115;DHT22;10715;48.546;9.896;2023-11-18T13:04:23;4.70;99.90
21115;DHT22;10715;48.546;9.896;2023-11-18T13:06:50;4.70;99.90
21115;DHT22;10715;48.546;9.896;2023-11-18T13:09:21;4.70;99.90
21115;DHT22;10715;48.546;9.896;2023-11-18T13:12:02;4.70;99.90
21115;DHT22;10715;48.546;9.896;2023-11-18T13:14:35;4.70;99.90
21115;DHT22;10715;48.546;9.896;2023-11-18T13:17:08;4.70;99.90
21115;DHT22;10715;48.546;9.896;2023-11-18T13:19:35;4.70;99.90
21115;DHT22;10715;48.546;9.896;2023-11-18T13:22:08;4.70;99.90
21115;DHT22;10715;48.546;9.896;2023-11-18T13:24:39;4.70;99.90
21115;DHT22;10715;48.546;9.896;2023-11-18T13:27:06;4.70;99.90
21115;DHT22;10715;48.546;9.896;2023-11-18T13:29:37;4.70;99.90
21115;DHT22;10715;48.546;9.896;2023-11-18T13:32:10;4.70;99.90
21115;DHT22;10715;48.546;9.896;2023-11-18T13:34:37;4.70;99.90
21115;DHT22;10715;48.546;9.896;2023-11-18T13:37:05;4.70;99.90
21115;DHT22;10715;48.546;9.896;2023-11-18T13:39:33;4.70;99.90
21115;DHT22;10715;48.546;9.896;2023-11-18T13:42:21;4.70;99.90
21115;DHT22;10715;48.546;9.896;2023-11-18T13:44:48;4.70;99.90
21115;DHT22;10715;48.546;9.896;2023-11-18T13:47:18;4.70;99.90
21115;DHT22;10715;48.546;9.896;2023-11-18T13:49:44;4.70;99.90
21115;DHT22;10715;48.546;9.896;2023-11-18T13:52:13;4.70;99.90
21115;DHT22;10715;48.546;9.896;2023-11-18T13:54:41;4.70;99.90
21115;DHT22;10715;48.546;9.896;2023-11-18T13:57:10;4.70;99.90
21115;DHT22;10715;48.546;9.896;2023-11-18T13:59:37;4.70;99.90
21115;DHT22;10715;48.546;9.896;2023-11-18T14:02:04;4.70;99.90
21115;DHT22;10715;48.546;9.896;2023-11-18T14:04:32;4.70;99.90
21115;DHT22;10715;48.546;9.896;2023-11-18T14:07:03;4.80;99.90
21115;DHT22;10715;48.546;9.896;2023-11-18T14:09:37;4.70;99.90
21115;DHT22;10715;48.546;9.896;2023-11-18T14:12:15;4.70;99.90
21115;DHT22;10715;48.546;9.896;2023-11-18T14:14:41;4.70;99.90
21115;DHT22;10715;48.546;9.896;2023-11-18T14:17:07;4.70;99.90
21115;DHT22;10715;48.546;9.896;2023-11-18T14:19:37;4.70;99.90
21115;DHT22;10715;48.546;9.896;2023-11-18T14:22:03;4.70;99.90
21115;DHT22;10715;48.546;9.896;2023-11-18T14:24:33;4.70;99.90
21115;DHT22;10715;48.546;9.896;2023-11-18T14:26:59;4.70;99.90
21115;DHT22;10715;48.546;9.896;2023-11-18T14:29:25;4.70;99.90
21115;DHT22;10715;48.546;9.896;2023-11-18T14:31:53;4.70;99.90
21115;DHT22;10715;48.546;9.896;2023-11-18T14:34:20;4.70;99.90
21115;DHT22;10715;48.546;9.896;2023-11-18T14:36:45;4.70;99.90
21115;DHT22;10715;48.546;9.896;2023-11-18T14:39:11;4.70;99.90
21115;DHT22;10715;48.546;9.896;2023-11-18T14:41:44;4.70;99.90
21115;DHT22;10715;48.546;9.896;2023-11-18T14:44:12;4.70;99.90
21115;DHT22;10715;48.546;9.896;2023-11-18T14:46:39;4.70;99.90
21115;DHT22;10715;48.546;9.896;2023-11-18T14:49:06;4.70;99.90
21115;DHT22;10715;48.546;9.896;2023-11-18T14:51:33;4.70;99.90
21115;DHT22;10715;48.546;9.896;2023-11-18T14:53:59;4.70;99.90
21115;DHT22;10715;48.546;9.896;2023-11-18T14:56:26;4.70;99.90
21115;DHT22;10715;48.546;9.896;2023-11-18T14:58:54;4.70;99.90
21115;DHT22;10715;48.546;9.896;2023-11-18T15:01:20;4.70;99.90
21115;DHT22;10715;48.546;9.896;2023-11-18T15:03:45;4.70;99.90
21115;DHT22;10715;48.546;9.896;2023-11-18T15:06:11;4.70;99.90
21115;DHT22;10715;48.546;9.896;2023-11-18T15:08:37;4.70;99.90
21115;DHT22;10715;48.546;9.896;2023-11-18T15:11:05;4.70;99.90
21115;DHT22;10715;48.546;9.896;2023-11-18T15:13:32;4.70;99.90
21115;DHT22;10715;48.546;9.896;2023-11-18T15:15:58;4.70;99.90
21115;DHT22;10715;48.546;9.896;2023-11-18T15:18:24;4.70;99.90
21115;DHT22;10715;48.546;9.896;2023-11-18T15:20:50;4.70;99.90
21115;DHT22;10715;48.546;9.896;2023-11-18T15:23:17;4.70;99.90
21115;DHT22;10715;48.546;9.896;2023-11-18T15:25:43;4.70;99.90
21115;DHT22;10715;48.546;9.896;2023-11-18T15:28:10;4.70;99.90
21115;DHT22;10715;48.546;9.896;2023-11-18T15:30:39;4.70;99.90
21115;DHT22;10715;48.546;9.896;2023-11-18T15:33:07;4.70;99.90
21115;DHT22;10715;48.546;9.896;2023-11-18T15:35:37;4.70;99.90
21115;DHT22;10715;48.546;9.896;2023-11-18T15:38:13;4.70;99.90
21115;DHT22;10715;48.546;9.896;2023-11-18T15:40:42;4.70;99.90
21115;DHT22;10715;48.546;9.896;2023-11-18T15:43:08;4.70;99.90
21115;DHT22;10715;48.546;9.896;2023-11-18T15:45:37;4.70;99.90
21115;DHT22;10715;48.546;9.896;2023-11-18T15:48:03;4.70;99.90
21115;DHT22;10715;48.546;9.896;2023-11-18T15:50:36;4.70;99.90
21115;DHT22;10715;48.546;9.896;2023-11-18T15:53:07;4.70;99.90
21115;DHT22;10715;48.546;9.896;2023-11-18T15:55:33;4.70;99.90
21115;DHT22;10715;48.546;9.896;2023-11-18T15:58:02;4.70;99.90
21115;DHT22;10715;48.546;9.896;2023-11-18T16:00:31;4.70;99.90
21115;DHT22;10715;48.546;9.896;2023-11-18T16:02:58;4.70;99.90
21115;DHT22;10715;48.546;9.896;2023-11-18T16:05:26;4.70;99.90
21115;DHT22;10715;48.546;9.896;2023-11-18T16:07:53;4.70;99.90
21115;DHT22;10715;48.546;9.896;2023-11-18T16:10:20;4.70;99.90
21115;DHT22;10715;48.546;9.896;2023-11-18T16:12:59;4.70;99.90
21115;DHT22;10715;48.546;9.896;2023-11-18T16:15:29;4.70;99.90
21115;DHT22;10715;48.546;9.896;2023-11-18T16:17:56;4.70;99.90
21115;DHT22;10715;48.546;9.896;2023-11-18T16:20:27;4.70;99.90
21115;DHT22;10715;48.546;9.896;2023-11-18T16:22:54;4.70;99.90
21115;DHT22;10715;48.546;9.896;2023-11-18T16:25:26;4.70;99.90
21115;DHT22;10715;48.546;9.896;2023-11-18T16:28:02;4.70;99.90
21115;DHT22;10715;48.546;9.896;2023-11-18T16:30:28;4.70;99.90
21115;DHT22;10715;48.546;9.896;2023-11-18T16:33:00;4.70;99.90
21115;DHT22;10715;48.546;9.896;2023-11-18T16:35:29;4.70;99.90